Time;durP1;ratioP1;P1;durP2;ratioP2;P2;SDS_P1;SDS_P2;PMS_P1;PMS_P2;Temp;Humidity;BMP_temperature;BMP_pressure;BME280_temperature;BME280_humidity;BME280_pressure;Samples;Min_cycle;Max_cycle;Signal;HPM_P1;HPM_P2
2022/07/04 00:01:14;;;;;;;;;;;28.40;37.40;;;;;;5041203;28;974;-44
2022/07/04 00:03:41;;;;;;;;;;;28.40;37.50;;;;;;5040294;28;3042;-45
2022/07/04 00:06:08;;;;;;;;;;;28.40;37.70;;;;;;5040000;28;961;-44
2022/07/04 00:08:35;;;;;;;;;;;28.50;37.60;;;;;;5040410;28;942;-45
2022/07/04 00:11:02;;;;;;;;;;;28.50;37.40;;;;;;5040200;28;1080;-45
2022/07/04 00:13:30;;;;;;;;;;;28.50;37.50;;;;;;5039468;28;993;-44
2022/07/04 00:15:57;;;;;;;;;;;28.50;37.50;;;;;;5040365;28;2160;-44
2022/07/04 00:18:24;;;;;;;;;;;28.50;37.40;;;;;;5040372;28;1052;-44
2022/07/04 00:20:52;;;;;;;;;;;28.50;37.40;;;;;;5040238;28;984;-45
2022/07/04 00:23:19;;;;;;;;;;;28.50;37.50;;;;;;5039415;28;1908;-45
2022/07/04 00:25:46;;;;;;;;;;;28.50;37.40;;;;;;5039341;28;1175;-44
2022/07/04 00:28:13;;;;;;;;;;;28.50;37.40;;;;;;5039731;28;989;-45
2022/07/04 00:30:41;;;;;;;;;;;28.60;37.40;;;;;;5039871;28;1024;-44
2022/07/04 00:33:11;;;;;;;;;;;28.60;37.40;;;;;;5039675;28;997;-44
2022/07/04 00:35:38;;;;;;;;;;;28.60;37.40;;;;;;5039491;28;1031;-44
2022/07/04 00:38:05;;;;;;;;;;;28.70;37.30;;;;;;5039633;28;931;-45
2022/07/04 00:40:32;;;;;;;;;;;28.60;37.40;;;;;;5039482;28;977;-45
2022/07/04 00:43:00;;;;;;;;;;;28.60;37.30;;;;;;5040029;28;1898;-46
2022/07/04 00:45:27;;;;;;;;;;;28.60;37.50;;;;;;5039756;28;959;-45
2022/07/04 00:47:55;;;;;;;;;;;28.60;37.40;;;;;;5040187;28;1029;-43
2022/07/04 00:50:22;;;;;;;;;;;28.60;37.50;;;;;;5039279;28;1176;-46
2022/07/04 00:52:49;;;;;;;;;;;28.60;37.50;;;;;;5039682;28;938;-45
2022/07/04 00:55:17;;;;;;;;;;;28.60;37.40;;;;;;5039066;28;2890;-45
2022/07/04 00:57:43;;;;;;;;;;;28.60;37.40;;;;;;5039263;28;1013;-44
2022/07/04 01:00:11;;;;;;;;;;;28.70;37.40;;;;;;5038960;28;978;-41
2022/07/04 01:02:38;;;;;;;;;;;28.60;37.40;;;;;;5039161;28;1980;-42
2022/07/04 01:05:06;;;;;;;;;;;28.60;37.40;;;;;;5039389;28;973;-39
2022/07/04 01:07:33;;;;;;;;;;;28.60;37.60;;;;;;5039450;28;1114;-40
2022/07/04 01:10:00;;;;;;;;;;;28.70;37.50;;;;;;5040071;28;968;-41
2022/07/04 01:12:27;;;;;;;;;;;28.80;37.20;;;;;;5039463;28;2126;-39
2022/07/04 01:14:54;;;;;;;;;;;28.90;37.10;;;;;;5039170;28;930;-40
2022/07/04 01:17:21;;;;;;;;;;;28.80;37.00;;;;;;5038119;28;941;-39
2022/07/04 01:19:48;;;;;;;;;;;28.90;37.10;;;;;;5039062;28;1052;-41
2022/07/04 01:22:16;;;;;;;;;;;28.90;36.80;;;;;;5038678;28;1987;-40
2022/07/04 01:24:43;;;;;;;;;;;29.00;36.40;;;;;;5038970;28;954;-41
2022/07/04 01:27:10;;;;;;;;;;;29.10;36.40;;;;;;5039097;28;910;-41
2022/07/04 01:29:36;;;;;;;;;;;29.10;36.40;;;;;;5038923;28;993;-41
2022/07/04 01:32:06;;;;;;;;;;;29.10;36.20;;;;;;5039210;28;1017;-40
2022/07/04 01:34:33;;;;;;;;;;;29.10;36.10;;;;;;5038973;28;1008;-41
2022/07/04 01:37:00;;;;;;;;;;;29.10;36.20;;;;;;5038507;28;878;-42
2022/07/04 01:39:29;;;;;;;;;;;29.10;36.20;;;;;;5039361;28;925;-39
2022/07/04 01:41:56;;;;;;;;;;;29.10;36.00;;;;;;5039524;28;1032;-40
2022/07/04 01:44:23;;;;;;;;;;;29.10;36.00;;;;;;5039276;28;1910;-42
2022/07/04 01:46:50;;;;;;;;;;;29.10;35.80;;;;;;5039271;28;1405;-43
2022/07/04 01:49:16;;;;;;;;;;;29.10;35.70;;;;;;5039255;28;993;-45
2022/07/04 01:51:46;;;;;;;;;;;29.20;35.60;;;;;;5038175;28;1006;-42
2022/07/04 01:54:13;;;;;;;;;;;29.30;35.50;;;;;;5038640;28;1041;-44
2022/07/04 01:56:41;;;;;;;;;;;29.30;35.40;;;;;;5038311;28;1109;-43
2022/07/04 01:59:08;;;;;;;;;;;29.20;35.40;;;;;;5038442;28;955;-40
2022/07/04 02:01:34;;;;;;;;;;;29.20;35.40;;;;;;5038180;28;996;-42
2022/07/04 02:04:01;;;;;;;;;;;29.20;35.40;;;;;;5037520;28;1993;-40
2022/07/04 02:06:29;;;;;;;;;;;29.20;35.30;;;;;;5037216;28;1001;-44
2022/07/04 02:14:26;;;;;;;;;;;29.10;35.10;;;;;;5037108;28;604;-42
2022/07/04 02:16:53;;;;;;;;;;;29.10;35.30;;;;;;5037544;28;980;-44
2022/07/04 02:19:19;;;;;;;;;;;29.10;35.30;;;;;;5036451;28;965;-44
2022/07/04 02:21:46;;;;;;;;;;;29.10;35.20;;;;;;5036694;28;1031;-41
2022/07/04 02:24:13;;;;;;;;;;;29.10;35.30;;;;;;5035928;28;1906;-45
2022/07/04 02:26:41;;;;;;;;;;;29.10;35.20;;;;;;5035610;28;886;-42
2022/07/04 02:29:08;;;;;;;;;;;29.00;35.10;;;;;;5036723;28;981;-41
2022/07/04 02:31:35;;;;;;;;;;;29.10;35.70;;;;;;5036296;28;1220;-43
2022/07/04 02:34:01;;;;;;;;;;;29.00;35.10;;;;;;5036759;28;962;-41
2022/07/04 02:36:28;;;;;;;;;;;29.00;35.10;;;;;;5037449;28;1000;-47
2022/07/04 02:38:55;;;;;;;;;;;29.00;35.10;;;;;;5036663;28;1008;-44
2022/07/04 02:41:22;;;;;;;;;;;29.00;35.00;;;;;;5036731;28;945;-44
2022/07/04 02:43:50;;;;;;;;;;;29.00;35.00;;;;;;5036509;28;1956;-43
2022/07/04 02:46:17;;;;;;;;;;;29.00;35.00;;;;;;5038535;28;977;-43
2022/07/04 02:48:43;;;;;;;;;;;29.00;34.90;;;;;;5036749;28;973;-43
2022/07/04 02:51:10;;;;;;;;;;;29.00;34.90;;;;;;5036867;28;1901;-43
2022/07/04 02:53:37;;;;;;;;;;;29.00;34.90;;;;;;5036708;28;882;-43
2022/07/04 02:56:04;;;;;;;;;;;29.00;34.90;;;;;;5036611;28;1005;-41
2022/07/04 02:58:31;;;;;;;;;;;29.00;35.00;;;;;;5035583;28;1793;-44
2022/07/04 03:01:00;;;;;;;;;;;29.00;35.00;;;;;;5036453;28;969;-44
2022/07/04 03:03:27;;;;;;;;;;;29.00;35.00;;;;;;5035545;28;1914;-40
2022/07/04 03:05:54;;;;;;;;;;;29.00;35.10;;;;;;5036210;28;913;-39
2022/07/04 03:08:21;;;;;;;;;;;28.90;35.00;;;;;;5036642;28;991;-38
2022/07/04 03:10:49;;;;;;;;;;;29.00;35.10;;;;;;5032989;28;1043;-40
2022/07/04 03:13:16;;;;;;;;;;;28.90;35.00;;;;;;5036374;28;923;-42
2022/07/04 03:15:43;;;;;;;;;;;29.00;35.00;;;;;;5035422;28;981;-44
2022/07/04 03:18:11;;;;;;;;;;;28.90;35.00;;;;;;5036016;28;1033;-40
2022/07/04 03:20:38;;;;;;;;;;;29.00;35.00;;;;;;5036317;28;1016;-43
2022/07/04 03:23:05;;;;;;;;;;;28.90;35.00;;;;;;5036035;28;1907;-44
2022/07/04 03:25:31;;;;;;;;;;;28.90;35.00;;;;;;5036510;28;1029;-45
2022/07/04 03:27:58;;;;;;;;;;;28.90;34.90;;;;;;5035194;28;1008;-42
2022/07/04 03:30:25;;;;;;;;;;;28.90;34.80;;;;;;5034725;28;1107;-45
2022/07/04 03:32:51;;;;;;;;;;;28.90;34.80;;;;;;5034366;28;985;-43
2022/07/04 03:35:20;;;;;;;;;;;28.90;34.90;;;;;;5034956;28;930;-43
2022/07/04 03:37:47;;;;;;;;;;;28.90;34.90;;;;;;5034886;28;998;-43
2022/07/04 03:40:14;;;;;;;;;;;28.90;35.00;;;;;;5034320;28;992;-41
2022/07/04 03:42:40;;;;;;;;;;;28.90;34.90;;;;;;5035513;28;1976;-41
2022/07/04 03:45:08;;;;;;;;;;;28.90;35.00;;;;;;5035719;28;1022;-43
2022/07/04 03:47:34;;;;;;;;;;;28.90;34.90;;;;;;5035684;28;1040;-44
2022/07/04 03:50:01;;;;;;;;;;;28.90;34.90;;;;;;5035777;28;879;-42
2022/07/04 03:52:30;;;;;;;;;;;28.90;34.90;;;;;;5035969;28;923;-43
2022/07/04 03:54:56;;;;;;;;;;;28.90;34.80;;;;;;5035776;28;1013;-43
2022/07/04 03:57:23;;;;;;;;;;;28.90;34.70;;;;;;5036094;28;1013;-43
2022/07/04 03:59:50;;;;;;;;;;;28.90;34.70;;;;;;5036369;28;997;-43
2022/07/04 04:02:16;;;;;;;;;;;28.80;34.70;;;;;;5037038;28;902;-42
2022/07/04 04:07:28;;;;;;;;;;;28.90;34.70;;;;;;5036421;28;603;-40
2022/07/04 04:09:56;;;;;;;;;;;28.90;34.60;;;;;;5036253;28;1023;-43
2022/07/04 04:12:22;;;;;;;;;;;28.90;34.60;;;;;;5036094;28;1036;-44
2022/07/04 04:14:49;;;;;;;;;;;28.80;34.70;;;;;;5036894;28;961;-42
2022/07/04 04:17:16;;;;;;;;;;;28.90;34.70;;;;;;5040318;28;1005;-41
2022/07/04 04:19:42;;;;;;;;;;;28.80;34.60;;;;;;5040612;28;1731;-41
2022/07/04 04:22:09;;;;;;;;;;;28.80;34.60;;;;;;5039897;28;1100;-41
2022/07/04 04:24:36;;;;;;;;;;;28.80;34.60;;;;;;5039796;28;1906;-44
2022/07/04 04:27:04;;;;;;;;;;;28.80;34.60;;;;;;5039610;28;966;-42
2022/07/04 04:29:31;;;;;;;;;;;28.90;34.70;;;;;;5040141;28;902;-44
2022/07/04 04:31:58;;;;;;;;;;;28.80;34.60;;;;;;5038927;28;1016;-39
2022/07/04 04:34:25;;;;;;;;;;;28.80;34.60;;;;;;5038891;28;913;-41
2022/07/04 04:36:52;;;;;;;;;;;28.80;34.60;;;;;;5039547;28;1016;-42
2022/07/04 04:39:18;;;;;;;;;;;28.80;34.70;;;;;;5039062;28;1039;-38
2022/07/04 04:41:45;;;;;;;;;;;28.80;34.70;;;;;;5038717;28;1036;-38
2022/07/04 04:44:13;;;;;;;;;;;28.80;34.70;;;;;;5039853;28;1910;-38
2022/07/04 04:46:40;;;;;;;;;;;28.80;34.70;;;;;;5036625;28;1056;-38
2022/07/04 04:49:07;;;;;;;;;;;28.80;34.70;;;;;;5036853;28;1025;-39
2022/07/04 04:51:33;;;;;;;;;;;28.80;34.70;;;;;;5037097;28;974;-45
2022/07/04 04:54:00;;;;;;;;;;;28.80;34.60;;;;;;5037372;28;986;-46
2022/07/04 04:56:27;;;;;;;;;;;28.80;34.70;;;;;;5037175;28;986;-46
2022/07/04 04:58:54;;;;;;;;;;;28.80;34.70;;;;;;5036865;28;930;-44
2022/07/04 05:01:22;;;;;;;;;;;28.80;34.70;;;;;;5037470;28;945;-46
2022/07/04 05:03:49;;;;;;;;;;;28.80;34.70;;;;;;5038857;28;1902;-45
2022/07/04 05:06:16;;;;;;;;;;;28.80;34.70;;;;;;5038632;28;950;-42
2022/07/04 05:08:42;;;;;;;;;;;28.90;34.70;;;;;;5038040;28;861;-39
2022/07/04 05:11:09;;;;;;;;;;;28.80;34.90;;;;;;5037991;28;1116;-39
2022/07/04 05:13:36;;;;;;;;;;;28.80;34.80;;;;;;5036484;28;1893;-39
2022/07/04 05:16:03;;;;;;;;;;;28.80;34.70;;;;;;5037150;28;995;-38
2022/07/04 05:18:31;;;;;;;;;;;28.80;34.80;;;;;;5035277;28;980;-38
2022/07/04 05:20:59;;;;;;;;;;;28.80;35.20;;;;;;5035638;28;1021;-38
2022/07/04 05:23:25;;;;;;;;;;;28.80;35.20;;;;;;5035599;28;1902;-38
2022/07/04 05:25:52;;;;;;;;;;;28.80;35.20;;;;;;5034769;28;975;-40
2022/07/04 05:28:19;;;;;;;;;;;28.80;35.20;;;;;;5034640;28;914;-38
2022/07/04 05:30:46;;;;;;;;;;;28.70;35.20;;;;;;5035229;28;953;-40
2022/07/04 05:33:12;;;;;;;;;;;28.70;35.20;;;;;;5036400;28;934;-38
2022/07/04 05:35:41;;;;;;;;;;;28.60;35.30;;;;;;5034812;28;949;-39
2022/07/04 05:38:08;;;;;;;;;;;28.60;35.30;;;;;;5035018;28;954;-39
2022/07/04 05:40:34;;;;;;;;;;;28.60;35.30;;;;;;5037079;28;1037;-38
2022/07/04 05:43:01;;;;;;;;;;;28.60;35.50;;;;;;5035769;28;879;-39
2022/07/04 05:45:28;;;;;;;;;;;28.60;35.50;;;;;;5035709;28;1902;-39
2022/07/04 05:47:55;;;;;;;;;;;28.60;35.50;;;;;;5036787;28;887;-38
2022/07/04 05:50:22;;;;;;;;;;;28.60;35.50;;;;;;5034562;28;964;-39
2022/07/04 05:52:50;;;;;;;;;;;28.60;35.60;;;;;;5034558;28;649;-38
2022/07/04 05:55:17;;;;;;;;;;;28.50;35.60;;;;;;5034227;28;1045;-39
2022/07/04 05:57:44;;;;;;;;;;;28.50;35.70;;;;;;5033551;28;1001;-38
2022/07/04 06:00:12;;;;;;;;;;;28.50;35.80;;;;;;5033301;28;941;-42
2022/07/04 06:02:38;;;;;;;;;;;28.50;35.80;;;;;;5034115;28;978;-38
2022/07/04 06:05:05;;;;;;;;;;;28.40;35.80;;;;;;5033588;28;1967;-39
2022/07/04 06:07:32;;;;;;;;;;;28.40;35.80;;;;;;5034046;28;1048;-39
2022/07/04 06:10:00;;;;;;;;;;;28.40;35.90;;;;;;5034013;28;954;-45
2022/07/04 06:12:27;;;;;;;;;;;28.40;35.90;;;;;;5034112;28;962;-45
2022/07/04 06:14:54;;;;;;;;;;;28.40;35.90;;;;;;5033808;28;1091;-45
2022/07/04 06:17:21;;;;;;;;;;;28.40;35.90;;;;;;5033921;28;997;-45
2022/07/04 06:19:48;;;;;;;;;;;28.30;35.70;;;;;;5033509;28;1019;-46
2022/07/04 06:22:14;;;;;;;;;;;28.30;35.80;;;;;;5033561;28;1064;-45
2022/07/04 06:24:41;;;;;;;;;;;28.30;35.70;;;;;;5033508;28;1979;-45
2022/07/04 06:27:10;;;;;;;;;;;28.30;35.90;;;;;;5033626;28;962;-45
2022/07/04 06:29:36;;;;;;;;;;;28.30;35.80;;;;;;5033734;28;961;-45
2022/07/04 06:32:03;;;;;;;;;;;28.30;35.80;;;;;;5032559;28;890;-45
2022/07/04 06:37:15;;;;;;;;;;;28.20;35.80;;;;;;5033161;28;623;-44
2022/07/04 06:39:41;;;;;;;;;;;28.20;35.90;;;;;;5032979;28;954;-45
2022/07/04 06:42:10;;;;;;;;;;;28.20;35.40;;;;;;5032977;28;878;-45
2022/07/04 06:44:37;;;;;;;;;;;28.20;35.30;;;;;;5033765;28;1898;-44
2022/07/04 06:47:03;;;;;;;;;;;28.10;35.10;;;;;;5032939;28;851;-45
2022/07/04 06:49:30;;;;;;;;;;;28.10;35.10;;;;;;5033973;28;887;-44
2022/07/04 06:51:57;;;;;;;;;;;28.10;35.00;;;;;;5033449;28;1039;-45
2022/07/04 06:54:24;;;;;;;;;;;28.10;35.00;;;;;;5033272;28;1017;-46
2022/07/04 06:56:52;;;;;;;;;;;28.10;34.80;;;;;;5033371;28;1018;-46
2022/07/04 06:59:20;;;;;;;;;;;28.10;34.70;;;;;;5033324;28;1025;-44
2022/07/04 07:01:46;;;;;;;;;;;28.00;34.10;;;;;;5034294;28;1017;-45
2022/07/04 07:04:13;;;;;;;;;;;28.00;34.20;;;;;;5032929;28;1910;-45
2022/07/04 07:06:40;;;;;;;;;;;28.00;34.10;;;;;;5032860;28;1013;-47
2022/07/04 07:09:07;;;;;;;;;;;28.00;34.50;;;;;;5014317;28;882;-44
2022/07/04 07:11:34;;;;;;;;;;;28.00;34.40;;;;;;5009189;28;917;-45
2022/07/04 07:14:00;;;;;;;;;;;28.00;34.50;;;;;;5009410;28;993;-45
2022/07/04 07:16:28;;;;;;;;;;;28.00;34.70;;;;;;5007995;28;1069;-45
2022/07/04 07:18:55;;;;;;;;;;;28.00;34.30;;;;;;5008593;28;917;-46
2022/07/04 07:21:22;;;;;;;;;;;28.00;34.20;;;;;;5029788;28;992;-48
2022/07/04 07:23:49;;;;;;;;;;;28.00;33.90;;;;;;5031863;28;1969;-45
2022/07/04 07:26:16;;;;;;;;;;;28.00;33.80;;;;;;5032187;28;981;-45
2022/07/04 07:28:43;;;;;;;;;;;27.90;33.20;;;;;;5032961;28;1044;-46
2022/07/04 07:31:09;;;;;;;;;;;27.90;33.20;;;;;;5032177;28;938;-45
2022/07/04 07:33:38;;;;;;;;;;;27.90;33.10;;;;;;5032486;28;1012;-45
2022/07/04 07:36:05;;;;;;;;;;;27.90;32.30;;;;;;5032520;28;1012;-45
2022/07/04 07:38:32;;;;;;;;;;;27.90;32.20;;;;;;5032336;28;937;-44
2022/07/04 07:40:59;;;;;;;;;;;27.80;32.00;;;;;;5032519;28;1016;-44
2022/07/04 07:43:26;;;;;;;;;;;27.80;32.00;;;;;;5032085;28;962;-45
2022/07/04 07:45:52;;;;;;;;;;;27.80;32.10;;;;;;5031912;28;1902;-45
2022/07/04 07:48:19;;;;;;;;;;;27.80;32.20;;;;;;5031543;28;863;-44
2022/07/04 07:50:47;;;;;;;;;;;27.80;32.10;;;;;;5033696;28;1029;-44
2022/07/04 07:53:15;;;;;;;;;;;27.80;32.20;;;;;;5036156;28;890;-46
2022/07/04 07:55:42;;;;;;;;;;;27.80;32.40;;;;;;5035848;28;1045;-45
2022/07/04 07:58:09;;;;;;;;;;;27.80;32.30;;;;;;5036024;28;847;-44
2022/07/04 08:00:36;;;;;;;;;;;27.80;32.10;;;;;;5035473;28;1005;-45
2022/07/04 08:05:49;;;;;;;;;;;27.70;31.90;;;;;;5035676;28;1898;-46
2022/07/04 08:08:16;;;;;;;;;;;27.70;32.00;;;;;;5034610;28;902;-45
2022/07/04 08:10:42;;;;;;;;;;;27.70;31.70;;;;;;5035571;28;966;-45
2022/07/04 08:13:09;;;;;;;;;;;27.70;31.30;;;;;;5035236;28;954;-44
2022/07/04 08:15:36;;;;;;;;;;;27.70;31.60;;;;;;5034448;28;1036;-45
2022/07/04 08:18:03;;;;;;;;;;;27.60;32.10;;;;;;5034957;28;993;-46
2022/07/04 08:20:30;;;;;;;;;;;27.70;32.50;;;;;;5034678;28;914;-46
2022/07/04 08:22:58;;;;;;;;;;;27.70;32.50;;;;;;5035355;28;1232;-46
2022/07/04 08:25:25;;;;;;;;;;;27.70;32.80;;;;;;5036543;28;1902;-45
2022/07/04 08:27:52;;;;;;;;;;;27.70;33.30;;;;;;5036383;28;962;-40
2022/07/04 08:30:19;;;;;;;;;;;27.60;34.50;;;;;;5036248;28;962;-40
2022/07/04 08:32:46;;;;;;;;;;;27.70;33.90;;;;;;5036287;28;987;-42
2022/07/04 08:35:13;;;;;;;;;;;27.70;33.60;;;;;;5036359;28;1016;-38
2022/07/04 08:37:41;;;;;;;;;;;27.70;34.10;;;;;;5036076;28;985;-35
2022/07/04 08:40:10;;;;;;;;;;;27.70;34.20;;;;;;5035675;28;990;-36
2022/07/04 08:42:38;;;;;;;;;;;27.70;34.20;;;;;;5034592;28;1028;-36
2022/07/04 08:45:06;;;;;;;;;;;27.60;34.50;;;;;;5035113;28;2001;-36
2022/07/04 08:47:33;;;;;;;;;;;27.70;34.90;;;;;;5035051;28;982;-35
2022/07/04 08:50:05;;;;;;;;;;;27.70;34.80;;;;;;5034318;28;982;-36
2022/07/04 08:52:36;;;;;;;;;;;27.70;35.10;;;;;;5035186;28;989;-36
2022/07/04 09:00:33;;;;;;;;;;;27.80;35.80;;;;;;5034322;28;1095;-37
2022/07/04 09:03:02;;;;;;;;;;;27.80;35.70;;;;;;5034057;28;922;-36
2022/07/04 09:05:28;;;;;;;;;;;27.80;35.70;;;;;;5033743;28;1902;-36
2022/07/04 09:07:55;;;;;;;;;;;27.70;35.90;;;;;;5034173;28;962;-36
2022/07/04 09:10:23;;;;;;;;;;;27.80;35.70;;;;;;5033969;28;1014;-36
2022/07/04 09:12:51;;;;;;;;;;;27.80;35.70;;;;;;5033488;28;1020;-36
2022/07/04 09:15:18;;;;;;;;;;;27.80;36.00;;;;;;5033447;28;1001;-35
2022/07/04 09:17:45;;;;;;;;;;;27.80;36.20;;;;;;5034482;28;927;-36
2022/07/04 09:20:16;;;;;;;;;;;27.80;36.10;;;;;;5033771;28;954;-37
2022/07/04 09:22:43;;;;;;;;;;;27.80;36.00;;;;;;5034276;28;1116;-37
2022/07/04 09:25:12;;;;;;;;;;;27.90;35.90;;;;;;5034068;28;1907;-36
2022/07/04 09:27:41;;;;;;;;;;;27.90;36.00;;;;;;5032351;28;858;-42
2022/07/04 09:30:10;;;;;;;;;;;27.90;36.40;;;;;;5033260;28;982;-39
2022/07/04 09:32:38;;;;;;;;;;;28.10;36.00;;;;;;5033056;28;830;-44
2022/07/04 09:35:05;;;;;;;;;;;27.90;36.60;;;;;;5033183;28;1019;-39
2022/07/04 09:37:39;;;;;;;;;;;27.80;36.70;;;;;;5033968;28;981;-39
2022/07/04 09:40:08;;;;;;;;;;;27.90;36.60;;;;;;5032285;28;969;-40
2022/07/04 09:42:36;;;;;;;;;;;27.80;36.70;;;;;;5033746;28;958;-39
2022/07/04 09:45:05;;;;;;;;;;;27.70;36.80;;;;;;5033832;28;1902;-40
2022/07/04 09:47:33;;;;;;;;;;;27.70;36.60;;;;;;5033279;28;989;-40
2022/07/04 09:50:00;;;;;;;;;;;27.80;36.70;;;;;;5033650;28;910;-38
2022/07/04 09:52:29;;;;;;;;;;;27.70;36.70;;;;;;5033051;28;973;-41
2022/07/04 09:54:58;;;;;;;;;;;27.70;36.70;;;;;;5033508;28;996;-39
2022/07/04 09:57:24;;;;;;;;;;;27.80;36.60;;;;;;5032468;28;1001;-42
2022/07/04 09:59:51;;;;;;;;;;;27.80;36.50;;;;;;5033339;28;929;-39
2022/07/04 10:02:18;;;;;;;;;;;27.80;36.40;;;;;;5033552;28;933;-41
2022/07/04 10:04:47;;;;;;;;;;;27.80;36.40;;;;;;5033688;28;1977;-40
2022/07/04 10:07:30;;;;;;;;;;;27.80;36.20;;;;;;5033458;28;923;-39
2022/07/04 10:09:57;;;;;;;;;;;27.80;36.20;;;;;;5033042;28;1041;-39
2022/07/04 10:12:25;;;;;;;;;;;27.80;36.40;;;;;;5033358;28;981;-40
2022/07/04 10:14:52;;;;;;;;;;;27.90;36.30;;;;;;5033538;28;938;-41
2022/07/04 10:17:19;;;;;;;;;;;28.00;36.00;;;;;;5033247;28;1021;-39
2022/07/04 10:19:50;;;;;;;;;;;27.90;36.10;;;;;;5031702;28;1010;-41
2022/07/04 10:22:18;;;;;;;;;;;27.90;35.90;;;;;;5031743;28;1285;-41
2022/07/04 10:24:44;;;;;;;;;;;27.90;36.00;;;;;;5033663;28;1982;-42
2022/07/04 10:27:12;;;;;;;;;;;28.00;35.90;;;;;;5031299;28;930;-39
2022/07/04 10:29:39;;;;;;;;;;;28.00;35.90;;;;;;5032384;28;1000;-42
2022/07/04 10:32:08;;;;;;;;;;;28.00;35.90;;;;;;5032617;28;955;-40
2022/07/04 10:34:39;;;;;;;;;;;28.00;37.00;;;;;;5033652;28;1000;-38
2022/07/04 10:37:08;;;;;;;;;;;28.00;35.90;;;;;;5033580;28;1005;-41
2022/07/04 10:39:34;;;;;;;;;;;28.00;35.90;;;;;;5033423;28;1111;-43
2022/07/04 10:42:01;;;;;;;;;;;28.00;35.90;;;;;;5032955;28;865;-42
2022/07/04 10:44:36;;;;;;;;;;;27.90;35.80;;;;;;5032101;28;973;-40
2022/07/04 10:47:03;;;;;;;;;;;28.00;35.90;;;;;;5033141;28;1902;-38
2022/07/04 10:49:30;;;;;;;;;;;28.00;35.80;;;;;;5032577;28;1077;-40
2022/07/04 10:52:09;;;;;;;;;;;28.00;35.70;;;;;;5032428;28;1124;-41
2022/07/04 10:54:38;;;;;;;;;;;28.10;35.80;;;;;;5032223;28;1005;-41
2022/07/04 10:57:12;;;;;;;;;;;28.10;35.70;;;;;;5032628;28;910;-39
2022/07/04 10:59:39;;;;;;;;;;;28.20;35.60;;;;;;5032172;28;1196;-41
2022/07/04 11:02:25;;;;;;;;;;;28.10;35.60;;;;;;5031649;28;981;-41
2022/07/04 11:04:54;;;;;;;;;;;28.10;35.70;;;;;;5031854;28;1371;-40
2022/07/04 11:07:21;;;;;;;;;;;28.10;35.90;;;;;;5032421;28;986;-42
2022/07/04 11:10:12;;;;;;;;;;;28.20;35.80;;;;;;5033058;28;1043;-45
2022/07/04 11:13:02;;;;;;;;;;;28.10;35.90;;;;;;5032605;28;1119;-43
2022/07/04 11:15:44;;;;;;;;;;;28.30;35.70;;;;;;5033116;28;1028;-43
2022/07/04 11:18:12;;;;;;;;;;;28.30;35.70;;;;;;5032872;28;1060;-43
2022/07/04 11:20:43;;;;;;;;;;;28.40;35.70;;;;;;5033241;28;1033;-44
2022/07/04 11:23:11;;;;;;;;;;;28.30;35.80;;;;;;5031645;28;1042;-42
2022/07/04 11:25:40;;;;;;;;;;;28.40;35.80;;;;;;5035022;28;1921;-44
2022/07/04 11:28:18;;;;;;;;;;;28.40;35.80;;;;;;5034555;28;1447;-43
2022/07/04 11:30:48;;;;;;;;;;;28.40;35.80;;;;;;5037507;28;1016;-43
2022/07/04 11:33:17;;;;;;;;;;;28.40;36.00;;;;;;5037418;28;942;-44
2022/07/04 11:35:44;;;;;;;;;;;28.30;36.10;;;;;;5037190;28;994;-45
2022/07/04 11:38:11;;;;;;;;;;;28.40;36.20;;;;;;5035538;28;1022;-44
2022/07/04 11:46:14;;;;;;;;;;;28.40;36.30;;;;;;5036914;28;1922;-45
2022/07/04 11:48:40;;;;;;;;;;;28.50;36.20;;;;;;5036201;28;934;-43
2022/07/04 11:51:16;;;;;;;;;;;28.40;36.30;;;;;;5035548;28;946;-44
2022/07/04 11:53:43;;;;;;;;;;;28.40;36.40;;;;;;5035642;28;1001;-44
2022/07/04 11:56:12;;;;;;;;;;;28.40;36.40;;;;;;5036373;28;1044;-45
2022/07/04 11:58:42;;;;;;;;;;;28.40;36.10;;;;;;5035611;28;855;-45
2022/07/04 12:01:09;;;;;;;;;;;28.40;36.10;;;;;;5035448;28;917;-44
2022/07/04 12:03:36;;;;;;;;;;;28.50;36.30;;;;;;5035047;28;938;-44
2022/07/04 12:06:03;;;;;;;;;;;28.50;35.90;;;;;;5035833;28;1980;-44
2022/07/04 12:08:30;;;;;;;;;;;28.50;36.00;;;;;;5035971;28;1134;-44
2022/07/04 12:10:57;;;;;;;;;;;28.40;36.00;;;;;;5034444;28;1000;-38
2022/07/04 12:13:25;;;;;;;;;;;28.50;36.40;;;;;;5035023;28;1120;-40
2022/07/04 12:15:53;;;;;;;;;;;28.50;35.90;;;;;;5035720;28;1089;-40
2022/07/04 12:18:21;;;;;;;;;;;28.50;35.80;;;;;;5034841;28;1074;-38
2022/07/04 12:20:48;;;;;;;;;;;28.50;36.90;;;;;;5035363;28;1035;-42
2022/07/04 12:23:14;;;;;;;;;;;28.70;35.60;;;;;;5034790;28;1080;-38
2022/07/04 12:25:43;;;;;;;;;;;28.70;35.30;;;;;;5033736;28;1996;-38
2022/07/04 12:28:10;;;;;;;;;;;28.70;35.40;;;;;;5033496;28;1040;-38
2022/07/04 12:30:40;;;;;;;;;;;28.80;35.80;;;;;;5035646;28;1011;-38
2022/07/04 12:33:07;;;;;;;;;;;28.60;35.70;;;;;;5035024;28;962;-41
2022/07/04 12:35:52;;;;;;;;;;;28.60;35.70;;;;;;5034170;28;934;-39
2022/07/04 12:38:21;;;;;;;;;;;28.60;36.00;;;;;;5034216;28;926;-39
2022/07/04 12:40:52;;;;;;;;;;;28.50;36.00;;;;;;5034414;28;1032;-38
2022/07/04 12:43:19;;;;;;;;;;;28.60;36.30;;;;;;5035140;28;869;-40
2022/07/04 12:45:48;;;;;;;;;;;28.80;35.60;;;;;;5034981;28;1894;-39
2022/07/04 12:48:19;;;;;;;;;;;28.80;35.50;;;;;;5033735;28;948;-37
2022/07/04 12:50:47;;;;;;;;;;;28.80;35.10;;;;;;5029943;28;1017;-38
2022/07/04 12:53:13;;;;;;;;;;;28.80;35.10;;;;;;5031874;28;831;-38
2022/07/04 12:55:41;;;;;;;;;;;28.80;34.80;;;;;;5034033;28;1009;-40
2022/07/04 12:58:09;;;;;;;;;;;28.70;34.80;;;;;;5034960;28;1025;-40
2022/07/04 13:00:36;;;;;;;;;;;28.70;34.70;;;;;;5034246;28;2339;-38
2022/07/04 13:03:05;;;;;;;;;;;28.70;34.50;;;;;;5035427;28;985;-36
2022/07/04 13:05:34;;;;;;;;;;;28.70;34.50;;;;;;5035657;28;1879;-39
2022/07/04 13:08:02;;;;;;;;;;;28.60;34.80;;;;;;5034822;28;1467;-39
2022/07/04 13:10:35;;;;;;;;;;;28.70;34.50;;;;;;5034742;28;997;-38
2022/07/04 13:13:03;;;;;;;;;;;28.70;34.30;;;;;;5035324;28;992;-41
2022/07/04 13:15:30;;;;;;;;;;;28.80;34.50;;;;;;5035361;28;1025;-41
2022/07/04 13:18:00;;;;;;;;;;;28.80;34.30;;;;;;5035512;28;998;-40
2022/07/04 13:20:29;;;;;;;;;;;28.80;34.20;;;;;;5035511;28;1878;-41
2022/07/04 13:22:56;;;;;;;;;;;28.90;34.00;;;;;;5036224;28;1282;-41
2022/07/04 13:25:23;;;;;;;;;;;28.80;34.00;;;;;;5036706;28;918;-42
2022/07/04 13:27:50;;;;;;;;;;;28.70;34.20;;;;;;5033602;28;1887;-45
2022/07/04 13:30:17;;;;;;;;;;;28.70;34.40;;;;;;5037124;28;910;-44
2022/07/04 13:32:45;;;;;;;;;;;28.80;34.20;;;;;;5036552;28;1011;-41
2022/07/04 13:35:12;;;;;;;;;;;28.70;34.40;;;;;;5036251;28;1011;-44
2022/07/04 13:37:40;;;;;;;;;;;28.70;34.20;;;;;;5035176;28;1013;-43
2022/07/04 13:40:10;;;;;;;;;;;28.70;34.20;;;;;;5035435;28;893;-44
2022/07/04 13:42:58;;;;;;;;;;;28.70;35.30;;;;;;5036699;28;1032;-41
2022/07/04 13:45:26;;;;;;;;;;;28.80;34.10;;;;;;5037590;28;1026;-38
2022/07/04 13:47:54;;;;;;;;;;;28.80;34.00;;;;;;5033948;28;1887;-39
2022/07/04 13:50:23;;;;;;;;;;;28.70;34.20;;;;;;5036000;28;858;-42
2022/07/04 13:52:52;;;;;;;;;;;28.70;34.10;;;;;;5035433;28;1123;-41
2022/07/04 13:55:18;;;;;;;;;;;28.70;34.20;;;;;;5032972;28;977;-39
2022/07/04 13:57:49;;;;;;;;;;;28.60;34.20;;;;;;5035468;28;1005;-37
2022/07/04 14:00:18;;;;;;;;;;;28.70;34.60;;;;;;5035333;28;1005;-39
2022/07/04 14:02:47;;;;;;;;;;;28.80;34.10;;;;;;5033980;28;991;-40
2022/07/04 14:05:14;;;;;;;;;;;28.80;33.90;;;;;;5034174;28;1432;-43
2022/07/04 14:07:41;;;;;;;;;;;28.80;33.80;;;;;;5034857;28;1906;-40
2022/07/04 14:10:12;;;;;;;;;;;28.80;34.10;;;;;;5035186;28;969;-35
2022/07/04 14:12:39;;;;;;;;;;;28.80;33.90;;;;;;5036688;28;1019;-39
2022/07/04 14:15:09;;;;;;;;;;;28.80;33.70;;;;;;5033533;28;1009;-37
2022/07/04 14:17:37;;;;;;;;;;;28.90;33.50;;;;;;5033836;28;1751;-37
2022/07/04 14:20:05;;;;;;;;;;;28.80;33.60;;;;;;5034098;28;1051;-39
2022/07/04 14:22:32;;;;;;;;;;;28.80;33.90;;;;;;5034428;28;1359;-38
2022/07/04 14:24:59;;;;;;;;;;;28.90;33.80;;;;;;5034381;28;1063;-39
2022/07/04 14:27:27;;;;;;;;;;;28.80;33.60;;;;;;5035566;28;1902;-38
2022/07/04 14:29:55;;;;;;;;;;;28.80;33.50;;;;;;5035380;28;997;-36
2022/07/04 14:32:25;;;;;;;;;;;28.90;33.50;;;;;;5034749;28;981;-39
2022/07/04 14:34:55;;;;;;;;;;;29.00;33.40;;;;;;5035993;28;1036;-35
2022/07/04 14:37:24;;;;;;;;;;;29.00;33.20;;;;;;5035291;28;1860;-38
2022/07/04 14:39:51;;;;;;;;;;;29.10;33.30;;;;;;5035204;28;1029;-39
2022/07/04 14:42:18;;;;;;;;;;;29.10;33.00;;;;;;5034807;28;992;-37
2022/07/04 14:44:47;;;;;;;;;;;29.20;32.90;;;;;;5034064;28;1215;-39
2022/07/04 14:47:15;;;;;;;;;;;29.20;32.90;;;;;;5033454;28;1909;-39
2022/07/04 14:49:42;;;;;;;;;;;29.20;32.80;;;;;;5035188;28;982;-36
2022/07/04 14:52:09;;;;;;;;;;;29.00;33.10;;;;;;5034992;28;1210;-35
2022/07/04 14:54:35;;;;;;;;;;;29.10;32.90;;;;;;5031806;28;993;-38
2022/07/04 14:57:03;;;;;;;;;;;29.10;33.20;;;;;;5031344;28;917;-38
2022/07/04 14:59:35;;;;;;;;;;;29.10;33.20;;;;;;5033688;28;1019;-43
2022/07/04 15:02:05;;;;;;;;;;;29.10;33.80;;;;;;5033830;28;1540;-40
2022/07/04 15:04:33;;;;;;;;;;;29.00;33.50;;;;;;5032524;28;1053;-35